Time;durP1;ratioP1;P1;durP2;ratioP2;P2;SDS_P1;SDS_P2;PMS_P1;PMS_P2;Temp;Humidity;BMP_temperature;BMP_pressure;BME280_temperature;BME280_humidity;BME280_pressure;Samples;Min_cycle;Max_cycle;Signal;HPM_P1;HPM_P2
2022/08/05 00:01:12;;;;;;;8.02;5.13;;;;;;;;;;5093479;28;20404;-76
2022/08/05 00:03:38;;;;;;;6.60;5.00;;;;;;;;;;5093600;28;20467;-76
2022/08/05 00:06:04;;;;;;;7.90;4.70;;;;;;;;;;5093300;28;20024;-75
2022/08/05 00:08:30;;;;;;;5.72;5.10;;;;;;;;;;5093453;28;20020;-77
2022/08/05 00:11:00;;;;;;;6.85;4.70;;;;;;;;;;5093522;28;20024;-76
2022/08/05 00:13:26;;;;;;;9.75;5.22;;;;;;;;;;5092183;28;20048;-76
2022/08/05 00:15:52;;;;;;;7.97;5.80;;;;;;;;;;5113184;27;20027;-76
2022/08/05 00:18:18;;;;;;;5.20;4.70;;;;;;;;;;5079642;28;20031;-76
2022/08/05 00:20:44;;;;;;;8.75;5.07;;;;;;;;;;5087179;28;20093;-77
2022/08/05 00:23:10;;;;;;;7.47;6.72;;;;;;;;;;5084586;28;20097;-76
2022/08/05 00:25:36;;;;;;;8.00;6.07;;;;;;;;;;5079317;28;20024;-76
2022/08/05 00:28:02;;;;;;;11.80;8.02;;;;;;;;;;5092884;28;20026;-75
2022/08/05 00:30:28;;;;;;;9.15;6.50;;;;;;;;;;5091609;28;20032;-76
2022/08/05 00:32:54;;;;;;;8.65;6.22;;;;;;;;;;5126024;27;20020;-75
2022/08/05 00:35:20;;;;;;;7.25;6.55;;;;;;;;;;5093068;28;20020;-75
2022/08/05 00:37:46;;;;;;;6.75;5.75;;;;;;;;;;5125628;27;20020;-75
2022/08/05 00:40:12;;;;;;;7.47;5.07;;;;;;;;;;5091573;28;20020;-75
2022/08/05 00:42:38;;;;;;;7.03;5.05;;;;;;;;;;5092738;28;20073;-75
2022/08/05 00:45:06;;;;;;;8.60;6.00;;;;;;;;;;5125557;27;20052;-75
2022/08/05 00:47:32;;;;;;;5.88;5.18;;;;;;;;;;5092617;28;20059;-76
2022/08/05 00:49:58;;;;;;;9.02;4.32;;;;;;;;;;5126025;27;20032;-76
2022/08/05 00:52:24;;;;;;;5.80;5.20;;;;;;;;;;5081184;28;20024;-76
2022/08/05 00:54:50;;;;;;;9.15;5.32;;;;;;;;;;5118256;27;20017;-75
2022/08/05 00:57:16;;;;;;;8.00;6.43;;;;;;;;;;5081013;28;20020;-75
2022/08/05 00:59:42;;;;;;;8.85;6.30;;;;;;;;;;5091787;28;20032;-75
2022/08/05 01:02:08;;;;;;;6.80;5.50;;;;;;;;;;5078781;28;20095;-75
2022/08/05 01:04:35;;;;;;;5.93;5.35;;;;;;;;;;5080140;28;20013;-75
2022/08/05 01:07:01;;;;;;;10.07;6.00;;;;;;;;;;5108956;27;20335;-76
2022/08/05 01:09:27;;;;;;;7.40;5.95;;;;;;;;;;5092020;28;20028;-75
2022/08/05 01:11:55;;;;;;;7.68;6.25;;;;;;;;;;5092148;28;20016;-75
2022/08/05 01:14:26;;;;;;;6.63;6.00;;;;;;;;;;5092746;28;20479;-76
2022/08/05 01:17:12;;;;;;;6.80;6.10;;;;;;;;;;5124820;27;20035;-76
2022/08/05 01:19:38;;;;;;;11.95;8.07;;;;;;;;;;5090071;28;20032;-75
2022/08/05 01:22:11;;;;;;;10.27;7.88;;;;;;;;;;5092140;28;20016;-76
2022/08/05 01:24:49;;;;;;;12.45;9.32;;;;;;;;;;5124879;27;20031;-75
2022/08/05 01:27:15;;;;;;;8.25;7.45;;;;;;;;;;5091627;28;20027;-76
2022/08/05 01:29:45;;;;;;;9.68;7.20;;;;;;;;;;5124905;27;20016;-76
2022/08/05 01:32:15;;;;;;;7.97;6.68;;;;;;;;;;5092040;28;20063;-75
2022/08/05 01:34:45;;;;;;;7.40;6.00;;;;;;;;;;5124926;27;20056;-76
2022/08/05 01:37:22;;;;;;;7.20;6.18;;;;;;;;;;5124517;27;20031;-76
2022/08/05 01:39:49;;;;;;;8.32;6.28;;;;;;;;;;5091893;28;20024;-76
2022/08/05 01:42:17;;;;;;;7.95;6.07;;;;;;;;;;5091788;28;20059;-75
2022/08/05 01:44:44;;;;;;;8.95;6.57;;;;;;;;;;5091448;28;20055;-75
2022/08/05 01:47:11;;;;;;;6.05;5.45;;;;;;;;;;5124431;27;20020;-75
2022/08/05 01:49:39;;;;;;;10.25;5.75;;;;;;;;;;5091540;28;20020;-76
2022/08/05 01:52:05;;;;;;;7.22;6.07;;;;;;;;;;5124637;27;20016;-76
2022/08/05 01:54:38;;;;;;;7.00;6.03;;;;;;;;;;5092036;28;20546;-76
2022/08/05 01:57:05;;;;;;;9.25;6.22;;;;;;;;;;5093665;28;20047;-76
2022/08/05 01:59:33;;;;;;;8.07;5.82;;;;;;;;;;5091691;28;20054;-76
2022/08/05 02:02:00;;;;;;;6.85;5.35;;;;;;;;;;5124620;27;20476;-75
2022/08/05 02:04:27;;;;;;;9.43;5.93;;;;;;;;;;5091486;28;20103;-76
2022/08/05 02:06:53;;;;;;;10.40;5.95;;;;;;;;;;5087917;28;20023;-75
2022/08/05 02:09:19;;;;;;;5.90;4.93;;;;;;;;;;5083223;28;20587;-76
2022/08/05 02:11:54;;;;;;;6.78;5.63;;;;;;;;;;5089818;28;20081;-75
2022/08/05 02:14:28;;;;;;;6.80;5.70;;;;;;;;;;5091738;28;20031;-76
2022/08/05 02:16:54;;;;;;;7.55;5.80;;;;;;;;;;5089969;28;20111;-75
2022/08/05 02:19:27;;;;;;;10.95;5.82;;;;;;;;;;5091251;28;20020;-76
2022/08/05 02:22:13;;;;;;;7.80;5.75;;;;;;;;;;5123730;27;20062;-75
2022/08/05 02:24:41;;;;;;;7.57;5.82;;;;;;;;;;5079618;28;20063;-77
2022/08/05 02:27:09;;;;;;;7.82;5.45;;;;;;;;;;5123864;27;20520;-76
2022/08/05 02:29:36;;;;;;;6.18;5.28;;;;;;;;;;5123962;27;20017;-77
2022/08/05 02:32:03;;;;;;;9.50;5.40;;;;;;;;;;5123820;27;20024;-76
2022/08/05 02:34:31;;;;;;;7.03;5.72;;;;;;;;;;5117255;27;20028;-75
2022/08/05 02:36:58;;;;;;;6.35;5.63;;;;;;;;;;5084132;28;20020;-76
2022/08/05 02:39:24;;;;;;;13.10;5.90;;;;;;;;;;5091087;28;20483;-77
2022/08/05 02:41:52;;;;;;;7.20;6.50;;;;;;;;;;5082174;28;20047;-76
2022/08/05 02:44:19;;;;;;;11.10;6.72;;;;;;;;;;5085200;28;20503;-76
2022/08/05 02:46:46;;;;;;;8.55;7.00;;;;;;;;;;5078180;28;20471;-76
2022/08/05 02:49:16;;;;;;;8.88;6.75;;;;;;;;;;5091340;28;20039;-76
2022/08/05 02:51:42;;;;;;;12.95;10.93;;;;;;;;;;5123836;27;20028;-76
2022/08/05 02:54:09;;;;;;;9.20;6.97;;;;;;;;;;5089872;28;20062;-76
2022/08/05 02:56:35;;;;;;;11.10;8.63;;;;;;;;;;5090875;28;20095;-75
2022/08/05 02:59:03;;;;;;;15.00;8.57;;;;;;;;;;5091020;28;20163;-75
2022/08/05 03:01:30;;;;;;;17.85;9.27;;;;;;;;;;5090211;28;20024;-76
2022/08/05 03:03:58;;;;;;;19.42;7.97;;;;;;;;;;5110319;27;20379;-76
2022/08/05 03:06:25;;;;;;;11.07;7.85;;;;;;;;;;5089766;28;20027;-76
2022/08/05 03:08:51;;;;;;;16.27;8.00;;;;;;;;;;5091241;28;20044;-77
2022/08/05 03:11:18;;;;;;;14.55;7.10;;;;;;;;;;5123768;28;20488;-76
2022/08/05 03:13:44;;;;;;;17.83;10.30;;;;;;;;;;5089981;28;20020;-75
2022/08/05 03:16:10;;;;;;;10.38;7.13;;;;;;;;;;5090628;28;20016;-76
2022/08/05 03:18:36;;;;;;;11.02;7.72;;;;;;;;;;5092090;28;20016;-76
2022/08/05 03:21:02;;;;;;;11.07;7.20;;;;;;;;;;5093128;28;20047;-76
2022/08/05 03:23:29;;;;;;;14.40;7.70;;;;;;;;;;5094896;28;20021;-76
2022/08/05 03:25:55;;;;;;;14.85;9.50;;;;;;;;;;5112895;27;20016;-76
2022/08/05 03:28:21;;;;;;;15.23;7.70;;;;;;;;;;5094147;28;20020;-76
2022/08/05 03:30:48;;;;;;;9.43;8.43;;;;;;;;;;5089947;28;20033;-75
2022/08/05 03:33:14;;;;;;;10.32;7.43;;;;;;;;;;5096904;28;20077;-76
2022/08/05 03:35:40;;;;;;;10.07;8.20;;;;;;;;;;5123233;27;20024;-77
2022/08/05 03:38:06;;;;;;;11.40;7.45;;;;;;;;;;5127020;27;20016;-77
2022/08/05 03:40:32;;;;;;;9.50;7.50;;;;;;;;;;5092782;28;20028;-77
2022/08/05 03:42:59;;;;;;;12.95;7.18;;;;;;;;;;5093587;28;20099;-78
2022/08/05 03:45:25;;;;;;;13.75;7.00;;;;;;;;;;5092575;28;20073;-78
2022/08/05 03:47:51;;;;;;;10.48;6.45;;;;;;;;;;5092347;28;20051;-77
2022/08/05 03:50:17;;;;;;;9.85;7.13;;;;;;;;;;5126325;27;20127;-77
2022/08/05 03:53:03;;;;;;;9.00;7.05;;;;;;;;;;5093823;28;20024;-78
2022/08/05 03:55:33;;;;;;;12.07;7.88;;;;;;;;;;5126535;27;20016;-78
2022/08/05 03:58:00;;;;;;;9.75;8.05;;;;;;;;;;5092388;28;20031;-78
2022/08/05 04:00:30;;;;;;;13.55;8.85;;;;;;;;;;5081545;28;20028;-76
2022/08/05 04:02:57;;;;;;;10.93;7.82;;;;;;;;;;5093190;28;20016;-79
2022/08/05 04:05:24;;;;;;;10.55;7.40;;;;;;;;;;5088833;28;20020;-77
2022/08/05 04:07:50;;;;;;;18.92;7.57;;;;;;;;;;5084262;28;20498;-78
2022/08/05 04:10:17;;;;;;;16.80;8.00;;;;;;;;;;5079217;28;20064;-77
2022/08/05 04:12:43;;;;;;;11.30;7.47;;;;;;;;;;5126592;27;20017;-77
2022/08/05 04:15:10;;;;;;;15.40;7.97;;;;;;;;;;5124680;27;20459;-76
2022/08/05 04:17:36;;;;;;;12.38;9.30;;;;;;;;;;5080698;28;20028;-76
2022/08/05 04:20:02;;;;;;;19.38;8.93;;;;;;;;;;5079633;28;20093;-75
2022/08/05 04:22:28;;;;;;;19.35;9.75;;;;;;;;;;5093122;28;20047;-76
2022/08/05 04:24:54;;;;;;;15.98;9.50;;;;;;;;;;5093281;28;20040;-77
2022/08/05 04:27:20;;;;;;;13.93;8.65;;;;;;;;;;5125026;27;20459;-76
2022/08/05 04:29:46;;;;;;;12.88;8.40;;;;;;;;;;5093565;28;20040;-77
2022/08/05 04:32:12;;;;;;;22.65;9.50;;;;;;;;;;5091653;28;20042;-77
2022/08/05 04:34:38;;;;;;;11.50;8.88;;;;;;;;;;5092480;28;20020;-78
2022/08/05 04:37:04;;;;;;;13.35;9.30;;;;;;;;;;5092887;28;20516;-77
2022/08/05 04:39:32;;;;;;;18.02;9.57;;;;;;;;;;5092270;28;20049;-78
2022/08/05 04:41:58;;;;;;;15.10;8.90;;;;;;;;;;5125873;27;20430;-77
2022/08/05 04:44:24;;;;;;;18.60;9.50;;;;;;;;;;5092641;28;20405;-76
2022/08/05 04:46:50;;;;;;;15.43;11.85;;;;;;;;;;5092629;28;20067;-76
2022/08/05 04:49:16;;;;;;;17.55;12.48;;;;;;;;;;5081855;28;20490;-77
2022/08/05 04:51:43;;;;;;;21.65;12.70;;;;;;;;;;5078306;28;20039;-77
2022/08/05 04:54:09;;;;;;;18.60;12.07;;;;;;;;;;5094187;28;20012;-76
2022/08/05 04:56:35;;;;;;;19.17;11.48;;;;;;;;;;5091395;28;20047;-77
2022/08/05 04:59:01;;;;;;;18.17;12.10;;;;;;;;;;5092768;28;20026;-76
2022/08/05 05:01:27;;;;;;;21.30;12.45;;;;;;;;;;5092586;28;20032;-77
2022/08/05 05:03:53;;;;;;;21.17;14.48;;;;;;;;;;5092378;28;20016;-77
2022/08/05 05:06:19;;;;;;;18.58;13.82;;;;;;;;;;5125334;27;20020;-76
2022/08/05 05:08:46;;;;;;;20.80;13.90;;;;;;;;;;5105782;27;20112;-76
2022/08/05 05:11:12;;;;;;;22.23;15.25;;;;;;;;;;5081719;28;20443;-76
2022/08/05 05:13:38;;;;;;;21.77;15.20;;;;;;;;;;5092222;28;20028;-76
2022/08/05 05:16:04;;;;;;;22.48;15.55;;;;;;;;;;5092209;28;20035;-77
2022/08/05 05:18:30;;;;;;;21.30;13.57;;;;;;;;;;5125000;27;20042;-77
2022/08/05 05:20:56;;;;;;;22.50;13.48;;;;;;;;;;5091724;28;20048;-77
2022/08/05 05:23:22;;;;;;;22.70;14.10;;;;;;;;;;5090687;28;20024;-77
2022/08/05 05:25:48;;;;;;;28.33;14.57;;;;;;;;;;5091930;28;20024;-79
2022/08/05 05:28:14;;;;;;;21.30;14.70;;;;;;;;;;5092068;28;20499;-78
2022/08/05 05:30:40;;;;;;;20.38;14.05;;;;;;;;;;5091927;28;20035;-76
2022/08/05 05:33:07;;;;;;;22.10;14.50;;;;;;;;;;5092678;28;20017;-77
2022/08/05 05:35:34;;;;;;;27.80;14.85;;;;;;;;;;5090549;28;20028;-77
2022/08/05 05:38:05;;;;;;;21.00;12.70;;;;;;;;;;5091494;28;20028;-77
2022/08/05 05:40:31;;;;;;;29.63;12.90;;;;;;;;;;5089947;28;20020;-79
2022/08/05 05:42:57;;;;;;;25.42;12.70;;;;;;;;;;5091360;28;20455;-78
2022/08/05 05:45:23;;;;;;;23.58;13.48;;;;;;;;;;5091342;28;20024;-77
2022/08/05 05:47:49;;;;;;;22.08;12.48;;;;;;;;;;5121951;27;20020;-79
2022/08/05 05:50:17;;;;;;;20.75;12.45;;;;;;;;;;5110377;27;20435;-78
2022/08/05 05:52:43;;;;;;;23.00;13.35;;;;;;;;;;5091248;28;20028;-80
2022/08/05 05:55:10;;;;;;;24.13;12.50;;;;;;;;;;5091274;28;20099;-78
2022/08/05 05:57:37;;;;;;;28.88;11.80;;;;;;;;;;5091629;28;20024;-78
2022/08/05 06:00:05;;;;;;;14.98;10.77;;;;;;;;;;5088072;28;20021;-79
2022/08/05 06:02:31;;;;;;;17.20;10.32;;;;;;;;;;5080940;28;20027;-78
2022/08/05 06:04:57;;;;;;;20.77;11.50;;;;;;;;;;5090104;28;20020;-78
2022/08/05 06:07:23;;;;;;;13.75;11.05;;;;;;;;;;5091466;28;20062;-77
2022/08/05 06:09:49;;;;;;;15.85;10.75;;;;;;;;;;5089721;28;20031;-77
2022/08/05 06:12:15;;;;;;;26.90;12.15;;;;;;;;;;5123963;27;20103;-78
2022/08/05 06:14:43;;;;;;;20.23;11.52;;;;;;;;;;5091806;28;20032;-77
2022/08/05 06:17:09;;;;;;;15.20;10.80;;;;;;;;;;5109688;28;20016;-77
2022/08/05 06:19:35;;;;;;;21.58;11.25;;;;;;;;;;5123955;28;20047;-76
2022/08/05 06:22:05;;;;;;;18.30;10.77;;;;;;;;;;5090876;28;20043;-77
2022/08/05 06:24:31;;;;;;;12.63;9.65;;;;;;;;;;5091377;28;20158;-78
2022/08/05 06:26:58;;;;;;;13.57;9.38;;;;;;;;;;5123129;28;20079;-77
2022/08/05 06:29:24;;;;;;;12.27;9.20;;;;;;;;;;5077877;28;20017;-78
2022/08/05 06:31:50;;;;;;;16.52;9.32;;;;;;;;;;5091030;28;20039;-79
2022/08/05 06:34:16;;;;;;;14.60;9.65;;;;;;;;;;5085928;28;20467;-79
2022/08/05 06:36:42;;;;;;;16.70;10.10;;;;;;;;;;5082197;28;20028;-79
2022/08/05 06:39:08;;;;;;;17.17;10.48;;;;;;;;;;5090791;28;20097;-79
2022/08/05 06:41:34;;;;;;;13.52;9.13;;;;;;;;;;5090821;28;20020;-78
2022/08/05 06:44:00;;;;;;;15.63;8.68;;;;;;;;;;5091700;28;20021;-79
2022/08/05 06:46:26;;;;;;;19.08;7.95;;;;;;;;;;5123520;28;20490;-78
2022/08/05 06:48:52;;;;;;;16.08;9.20;;;;;;;;;;5091123;28;20090;-79
2022/08/05 06:51:18;;;;;;;14.77;8.57;;;;;;;;;;5090425;28;20107;-77
2022/08/05 06:53:44;;;;;;;15.20;8.23;;;;;;;;;;5126877;27;20016;-78
2022/08/05 06:56:10;;;;;;;14.85;7.57;;;;;;;;;;5094668;28;20035;-78
2022/08/05 06:58:36;;;;;;;12.55;8.45;;;;;;;;;;5094459;28;20048;-78
2022/08/05 07:01:03;;;;;;;16.98;8.45;;;;;;;;;;5083405;28;20035;-78
2022/08/05 07:03:30;;;;;;;17.67;8.35;;;;;;;;;;5088877;28;20387;-77
2022/08/05 07:05:57;;;;;;;27.30;10.10;;;;;;;;;;5116799;27;20385;-78
2022/08/05 07:08:23;;;;;;;18.45;8.13;;;;;;;;;;5094377;28;20016;-77
2022/08/05 07:10:50;;;;;;;17.25;8.05;;;;;;;;;;5094325;28;20360;-78
2022/08/05 07:18:45;;;;;;;15.45;7.32;;;;;;;;;;5091466;28;20101;-78
2022/08/05 07:21:11;;;;;;;19.30;7.95;;;;;;;;;;5126810;27;20088;-77
2022/08/05 07:23:37;;;;;;;15.15;8.48;;;;;;;;;;5094599;28;20117;-78
2022/08/05 07:26:04;;;;;;;21.85;8.65;;;;;;;;;;5120704;27;20016;-78
2022/08/05 07:28:30;;;;;;;22.83;8.93;;;;;;;;;;5087349;28;20016;-78
2022/08/05 07:30:56;;;;;;;12.23;7.88;;;;;;;;;;5092482;28;20032;-78
2022/08/05 07:33:22;;;;;;;28.50;8.80;;;;;;;;;;5093932;28;20024;-78
2022/08/05 07:35:48;;;;;;;16.10;8.55;;;;;;;;;;5126770;27;20035;-77
2022/08/05 07:38:16;;;;;;;27.38;9.18;;;;;;;;;;5117108;27;20045;-77
2022/08/05 07:40:42;;;;;;;15.63;8.57;;;;;;;;;;5120584;27;20533;-77
2022/08/05 07:43:09;;;;;;;17.52;8.55;;;;;;;;;;5093915;28;20127;-78
2022/08/05 07:45:35;;;;;;;18.45;9.45;;;;;;;;;;5094202;28;20020;-77
2022/08/05 07:48:01;;;;;;;17.15;8.45;;;;;;;;;;5093593;28;20106;-79
2022/08/05 07:50:27;;;;;;;16.75;9.63;;;;;;;;;;5093864;28;20036;-77
2022/08/05 07:52:53;;;;;;;15.88;8.02;;;;;;;;;;5111926;27;20033;-81
2022/08/05 07:55:19;;;;;;;13.20;7.97;;;;;;;;;;5095431;28;20482;-77
2022/08/05 07:57:45;;;;;;;16.95;8.05;;;;;;;;;;5094061;28;20435;-78
2022/08/05 08:00:13;;;;;;;19.85;7.55;;;;;;;;;;5079338;28;20020;-78
2022/08/05 08:02:39;;;;;;;22.02;7.22;;;;;;;;;;5083235;28;20112;-79
2022/08/05 08:05:06;;;;;;;31.67;9.80;;;;;;;;;;5089592;28;20031;-77
2022/08/05 08:07:32;;;;;;;10.23;6.40;;;;;;;;;;5092336;28;20132;-79
2022/08/05 08:09:58;;;;;;;15.82;6.95;;;;;;;;;;5092963;28;20039;-79
2022/08/05 08:12:24;;;;;;;11.57;7.70;;;;;;;;;;5093713;28;20103;-79
2022/08/05 08:14:50;;;;;;;11.10;6.13;;;;;;;;;;5125978;27;20399;-77
2022/08/05 08:17:16;;;;;;;13.73;7.50;;;;;;;;;;5077797;28;20016;-79
2022/08/05 08:19:45;;;;;;;10.50;6.57;;;;;;;;;;5093206;28;20070;-78
2022/08/05 08:22:12;;;;;;;15.18;7.20;;;;;;;;;;5092551;28;20012;-79
2022/08/05 08:24:38;;;;;;;9.02;6.90;;;;;;;;;;5093356;28;20056;-78
2022/08/05 08:27:04;;;;;;;12.60;7.22;;;;;;;;;;5093191;28;20020;-78
2022/08/05 08:29:31;;;;;;;11.90;5.90;;;;;;;;;;5093497;28;20105;-78
2022/08/05 08:31:57;;;;;;;13.80;7.15;;;;;;;;;;5078892;28;20351;-78
2022/08/05 08:34:24;;;;;;;7.07;6.35;;;;;;;;;;5078497;28;20031;-77
2022/08/05 08:36:50;;;;;;;6.60;6.00;;;;;;;;;;5126128;27;20073;-78
2022/08/05 08:39:17;;;;;;;8.20;6.22;;;;;;;;;;5109173;27;20047;-77
2022/08/05 08:41:44;;;;;;;12.95;7.53;;;;;;;;;;5126543;27;20026;-76
2022/08/05 08:44:11;;;;;;;11.40;7.30;;;;;;;;;;5093198;28;20032;-75
2022/08/05 08:46:37;;;;;;;10.05;6.80;;;;;;;;;;5092879;28;20016;-78
2022/08/05 08:49:04;;;;;;;15.13;7.13;;;;;;;;;;5092274;28;20902;-77
2022/08/05 08:51:34;;;;;;;13.75;7.80;;;;;;;;;;5092446;28;20650;-77
2022/08/05 08:54:00;;;;;;;13.10;7.50;;;;;;;;;;5092523;28;20406;-78
2022/08/05 08:56:26;;;;;;;11.93;10.18;;;;;;;;;;5091006;28;20073;-78
2022/08/05 08:58:53;;;;;;;12.85;10.18;;;;;;;;;;5084703;28;20024;-78
2022/08/05 09:01:19;;;;;;;8.85;7.07;;;;;;;;;;5085650;28;20027;-77
2022/08/05 09:03:46;;;;;;;11.55;6.72;;;;;;;;;;5085347;28;20402;-79
2022/08/05 09:06:13;;;;;;;13.38;8.02;;;;;;;;;;5084846;28;20524;-77
2022/08/05 09:08:39;;;;;;;9.55;6.25;;;;;;;;;;5091976;28;20016;-77
2022/08/05 09:11:05;;;;;;;13.88;5.55;;;;;;;;;;5102082;28;20034;-76
2022/08/05 09:13:31;;;;;;;8.63;6.88;;;;;;;;;;5094796;28;20031;-78
2022/08/05 09:15:58;;;;;;;11.90;9.52;;;;;;;;;;5090687;28;20069;-77
2022/08/05 09:18:24;;;;;;;8.75;5.93;;;;;;;;;;5089994;28;20116;-79
2022/08/05 09:20:50;;;;;;;9.50;5.22;;;;;;;;;;5088010;28;20138;-76
2022/08/05 09:23:19;;;;;;;6.25;5.30;;;;;;;;;;5092927;28;20039;-79
2022/08/05 09:25:49;;;;;;;9.98;6.28;;;;;;;;;;5088492;28;20502;-77
2022/08/05 09:28:23;;;;;;;9.00;5.00;;;;;;;;;;5125220;27;20027;-75
2022/08/05 09:30:52;;;;;;;5.20;4.50;;;;;;;;;;5091162;28;20035;-77
2022/08/05 09:33:19;;;;;;;6.47;4.90;;;;;;;;;;5090383;28;20451;-78
2022/08/05 09:35:57;;;;;;;6.70;4.43;;;;;;;;;;5124357;27;20063;-79
2022/08/05 09:38:23;;;;;;;8.07;5.05;;;;;;;;;;5090966;28;20031;-78
2022/08/05 09:40:50;;;;;;;9.43;6.53;;;;;;;;;;5088409;28;20023;-77
2022/08/05 09:43:29;;;;;;;5.68;4.10;;;;;;;;;;5090798;28;20023;-75
2022/08/05 09:45:55;;;;;;;11.10;6.20;;;;;;;;;;5085904;28;20031;-74
2022/08/05 09:48:32;;;;;;;7.38;6.50;;;;;;;;;;5095212;28;20021;-78
2022/08/05 09:50:59;;;;;;;13.48;10.05;;;;;;;;;;5091125;28;20085;-75
2022/08/05 09:53:26;;;;;;;31.95;28.75;;;;;;;;;;5092183;28;20076;-75
2022/08/05 09:55:53;;;;;;;59.13;53.25;;;;;;;;;;5091160;28;20028;-75
2022/08/05 09:58:19;;;;;;;9.13;7.75;;;;;;;;;;5089445;28;20035;-77
2022/08/05 10:00:56;;;;;;;6.82;3.95;;;;;;;;;;5088317;28;20050;-78
2022/08/05 10:03:22;;;;;;;4.03;3.33;;;;;;;;;;5084446;28;20485;-77
2022/08/05 10:06:00;;;;;;;4.53;3.65;;;;;;;;;;5087604;28;20107;-78
2022/08/05 10:08:28;;;;;;;4.82;3.50;;;;;;;;;;5090253;28;20012;-79
2022/08/05 10:10:54;;;;;;;6.10;4.22;;;;;;;;;;5090375;28;20482;-77
2022/08/05 10:13:31;;;;;;;4.55;3.85;;;;;;;;;;5124056;27;20020;-75
2022/08/05 10:15:59;;;;;;;9.55;4.43;;;;;;;;;;5090632;28;20103;-78
2022/08/05 10:18:26;;;;;;;6.57;3.58;;;;;;;;;;5090590;28;20016;-80
2022/08/05 10:20:56;;;;;;;8.13;3.22;;;;;;;;;;5090830;28;20064;-77
2022/08/05 10:23:27;;;;;;;4.63;3.70;;;;;;;;;;5091217;28;20118;-78
2022/08/05 10:25:54;;;;;;;8.80;4.53;;;;;;;;;;5091221;28;20035;-78
2022/08/05 10:28:21;;;;;;;13.00;3.60;;;;;;;;;;5095646;28;20099;-79
2022/08/05 10:30:47;;;;;;;8.77;4.28;;;;;;;;;;5093640;28;20073;-77
2022/08/05 10:33:13;;;;;;;7.13;4.05;;;;;;;;;;5083831;28;20039;-77
2022/08/05 10:35:39;;;;;;;7.45;4.20;;;;;;;;;;5094467;28;20020;-76
2022/08/05 10:38:06;;;;;;;6.93;3.38;;;;;;;;;;5094474;28;20027;-79
2022/08/05 10:40:39;;;;;;;7.88;3.85;;;;;;;;;;5093528;28;20024;-79
2022/08/05 10:43:28;;;;;;;5.85;3.45;;;;;;;;;;5095193;28;20014;-77
2022/08/05 10:46:01;;;;;;;6.22;3.50;;;;;;;;;;5063703;28;20468;-76
2022/08/05 10:48:40;;;;;;;4.60;3.10;;;;;;;;;;5095227;28;20032;-78
2022/08/05 10:51:08;;;;;;;6.45;3.47;;;;;;;;;;5081459;28;20060;-76
2022/08/05 10:53:35;;;;;;;3.97;3.13;;;;;;;;;;5097433;28;20955;-77
2022/08/05 10:56:02;;;;;;;7.00;3.50;;;;;;;;;;5095260;28;20498;-77
2022/08/05 10:58:28;;;;;;;5.72;3.65;;;;;;;;;;5091128;28;20055;-79
2022/08/05 11:00:55;;;;;;;3.88;3.25;;;;;;;;;;5090729;28;20024;-76
2022/08/05 11:03:21;;;;;;;6.43;3.60;;;;;;;;;;5092378;28;20482;-79
2022/08/05 11:06:26;;;;;;;8.45;3.38;;;;;;;;;;5094213;28;20526;-78
2022/08/05 11:09:11;;;;;;;4.47;3.83;;;;;;;;;;5024644;28;20029;-78
2022/08/05 11:11:37;;;;;;;10.55;3.97;;;;;;;;;;5032458;28;20083;-78
2022/08/05 11:14:03;;;;;;;13.02;3.33;;;;;;;;;;5069836;28;20542;-79
2022/08/05 11:16:30;;;;;;;6.72;3.08;;;;;;;;;;5094094;28;20107;-78
2022/08/05 11:19:29;;;;;;;6.60;3.33;;;;;;;;;;5092241;28;20042;-78
2022/08/05 11:21:55;;;;;;;4.63;3.22;;;;;;;;;;5077849;28;20048;-76
2022/08/05 11:24:22;;;;;;;8.07;4.10;;;;;;;;;;5091545;28;20055;-78
2022/08/05 11:26:49;;;;;;;4.10;3.42;;;;;;;;;;5119290;27;20089;-76
2022/08/05 11:29:34;;;;;;;3.70;3.22;;;;;;;;;;5089823;28;20089;-76
2022/08/05 11:32:24;;;;;;;8.15;3.10;;;;;;;;;;5089315;28;20028;-77
2022/08/05 11:34:50;;;;;;;6.00;3.22;;;;;;;;;;5089283;28;20375;-76
2022/08/05 11:37:34;;;;;;;6.90;3.95;;;;;;;;;;5089019;28;20035;-74
2022/08/05 11:40:00;;;;;;;5.00;3.38;;;;;;;;;;5089475;28;20020;-75
2022/08/05 11:42:27;;;;;;;9.18;4.05;;;;;;;;;;5077564;28;20069;-76
2022/08/05 11:44:55;;;;;;;9.00;3.42;;;;;;;;;;5072411;28;20107;-78
2022/08/05 11:47:22;;;;;;;8.45;3.95;;;;;;;;;;5085639;28;20012;-78
2022/08/05 11:49:54;;;;;;;6.32;3.85;;;;;;;;;;5090600;28;20024;-77
2022/08/05 11:52:27;;;;;;;5.77;3.57;;;;;;;;;;5083456;28;20028;-77
2022/08/05 11:54:53;;;;;;;6.82;3.78;;;;;;;;;;5091708;28;20498;-77
2022/08/05 11:57:19;;;;;;;6.38;2.95;;;;;;;;;;5093296;28;20016;-76
2022/08/05 11:59:45;;;;;;;6.15;3.67;;;;;;;;;;5087482;28;20066;-78
2022/08/05 12:02:12;;;;;;;6.55;3.63;;;;;;;;;;5093112;28;20107;-76
2022/08/05 12:04:40;;;;;;;6.00;3.35;;;;;;;;;;5080059;28;20103;-77
2022/08/05 12:07:07;;;;;;;7.40;3.88;;;;;;;;;;5092796;28;20009;-78
2022/08/05 12:09:36;;;;;;;8.68;3.60;;;;;;;;;;5081980;28;20475;-78
2022/08/05 12:12:04;;;;;;;14.20;3.50;;;;;;;;;;5098797;28;20034;-77
2022/08/05 12:14:39;;;;;;;6.90;3.10;;;;;;;;;;5096026;28;20017;-76
2022/08/05 12:17:09;;;;;;;7.13;3.65;;;;;;;;;;5093302;28;20103;-81
2022/08/05 12:19:52;;;;;;;7.85;3.75;;;;;;;;;;5093273;28;20501;-78
2022/08/05 12:22:19;;;;;;;8.38;3.67;;;;;;;;;;5091158;28;20036;-76
2022/08/05 12:24:46;;;;;;;9.10;3.45;;;;;;;;;;5092972;28;20016;-78
2022/08/05 12:27:20;;;;;;;7.95;3.15;;;;;;;;;;5091206;28;20031;-77
2022/08/05 12:29:46;;;;;;;7.43;3.63;;;;;;;;;;5093237;28;20081;-77
2022/08/05 12:32:12;;;;;;;6.95;3.45;;;;;;;;;;5102892;28;20027;-76
2022/08/05 12:34:38;;;;;;;5.55;3.38;;;;;;;;;;5096407;28;20440;-76
2022/08/05 12:37:11;;;;;;;8.68;4.00;;;;;;;;;;5125638;27;20016;-78
2022/08/05 12:39:39;;;;;;;4.68;3.58;;;;;;;;;;5083355;28;20061;-77
2022/08/05 12:42:09;;;;;;;10.88;3.78;;;;;;;;;;5094047;28;20104;-77
2022/08/05 12:44:36;;;;;;;9.88;3.75;;;;;;;;;;5092756;28;20031;-78
2022/08/05 12:47:02;;;;;;;8.15;3.10;;;;;;;;;;5092073;28;20061;-78
2022/08/05 12:49:38;;;;;;;7.72;3.30;;;;;;;;;;5125151;27;20036;-79
2022/08/05 12:52:11;;;;;;;9.60;3.13;;;;;;;;;;5112026;27;20032;-79
2022/08/05 12:54:37;;;;;;;9.65;3.25;;;;;;;;;;5092418;28;20074;-79
2022/08/05 12:57:05;;;;;;;5.78;3.45;;;;;;;;;;5092793;28;20091;-77
2022/08/05 12:59:32;;;;;;;5.15;3.72;;;;;;;;;;5079805;28;20068;-79
2022/08/05 13:02:00;;;;;;;8.15;2.78;;;;;;;;;;5090403;28;20023;-77
2022/08/05 13:04:27;;;;;;;5.60;3.25;;;;;;;;;;5084792;28;20076;-76
2022/08/05 13:06:55;;;;;;;4.78;3.20;;;;;;;;;;5078004;28;20020;-76
2022/08/05 13:09:22;;;;;;;4.10;2.83;;;;;;;;;;5091347;28;20027;-79
2022/08/05 13:11:49;;;;;;;5.38;2.78;;;;;;;;;;5093061;28;20028;-77
2022/08/05 13:14:16;;;;;;;5.20;3.50;;;;;;;;;;5091878;28;20073;-78
2022/08/05 13:16:50;;;;;;;4.93;2.85;;;;;;;;;;5091908;28;20382;-77
2022/08/05 13:19:16;;;;;;;5.85;3.00;;;;;;;;;;5091719;28;20035;-77
2022/08/05 13:21:46;;;;;;;6.80;2.50;;;;;;;;;;5124510;27;20506;-77
2022/08/05 13:24:12;;;;;;;5.55;3.05;;;;;;;;;;5092340;28;20520;-76
2022/08/05 13:26:38;;;;;;;8.45;2.70;;;;;;;;;;5091213;28;20020;-76
2022/08/05 13:29:04;;;;;;;4.70;3.08;;;;;;;;;;5090568;28;20023;-75
2022/08/05 13:31:31;;;;;;;8.10;3.13;;;;;;;;;;5091345;28;20418;-76
2022/08/05 13:33:57;;;;;;;6.97;3.17;;;;;;;;;;5090259;28;20019;-76
2022/08/05 13:36:23;;;;;;;4.70;2.70;;;;;;;;;;5124998;27;20475;-76
2022/08/05 13:38:49;;;;;;;3.50;2.90;;;;;;;;;;5109906;27;20071;-77
2022/08/05 13:41:15;;;;;;;5.45;2.83;;;;;;;;;;5124258;27;20379;-75
2022/08/05 13:43:43;;;;;;;4.22;2.70;;;;;;;;;;5090909;28;20115;-76
2022/08/05 13:46:10;;;;;;;8.80;4.13;;;;;;;;;;5124064;27;20020;-75
2022/08/05 13:48:37;;;;;;;6.70;3.40;;;;;;;;;;5091488;28;20016;-75
2022/08/05 13:51:09;;;;;;;4.50;2.80;;;;;;;;;;5090248;28;20043;-79
2022/08/05 13:53:35;;;;;;;9.07;3.13;;;;;;;;;;5091014;28;20393;-75
2022/08/05 13:56:02;;;;;;;7.13;3.13;;;;;;;;;;5089734;28;20018;-76
2022/08/05 13:58:28;;;;;;;7.70;2.78;;;;;;;;;;5088394;28;20050;-79
2022/08/05 14:00:55;;;;;;;5.28;2.90;;;;;;;;;;5088886;28;20148;-80
2022/08/05 14:03:21;;;;;;;7.13;2.85;;;;;;;;;;5090056;28;20024;-79
2022/08/05 14:05:47;;;;;;;5.85;2.80;;;;;;;;;;5089630;28;20020;-76
2022/08/05 14:08:13;;;;;;;10.93;3.17;;;;;;;;;;5123701;27;20020;-77
2022/08/05 14:10:39;;;;;;;12.65;11.35;;;;;;;;;;5089682;28;20047;-76
2022/08/05 14:13:06;;;;;;;8.75;3.28;;;;;;;;;;5123398;27;20024;-77
2022/08/05 14:15:33;;;;;;;8.63;2.75;;;;;;;;;;5123964;27;20111;-79
2022/08/05 14:17:59;;;;;;;10.00;3.15;;;;;;;;;;5109567;27;20020;-77
2022/08/05 14:20:25;;;;;;;9.77;2.90;;;;;;;;;;5123794;27;20052;-77
2022/08/05 14:22:52;;;;;;;6.88;3.42;;;;;;;;;;5124102;28;20040;-76
2022/08/05 14:25:20;;;;;;;8.70;2.85;;;;;;;;;;5077166;28;20463;-75
2022/08/05 14:27:47;;;;;;;6.30;3.05;;;;;;;;;;5091405;28;20013;-76
2022/08/05 14:30:13;;;;;;;4.03;2.85;;;;;;;;;;5091288;28;20601;-75
2022/08/05 14:32:39;;;;;;;7.63;3.10;;;;;;;;;;5091279;28;20020;-76
2022/08/05 14:35:06;;;;;;;6.07;2.80;;;;;;;;;;5081401;28;20048;-80
2022/08/05 14:37:32;;;;;;;5.15;3.00;;;;;;;;;;5119497;28;20459;-75
2022/08/05 14:39:58;;;;;;;5.32;2.58;;;;;;;;;;5091503;28;20057;-78
2022/08/05 14:42:24;;;;;;;5.82;2.78;;;;;;;;;;5078689;28;20016;-75
2022/08/05 14:44:51;;;;;;;4.93;2.63;;;;;;;;;;5094437;28;20475;-77